Data for 06/26/2005

Time Sea-Level Adjusted Pressure Absolute Pressure Temperature Relative Humidity Dew Point   
(mb) (inHg) (mb) (inHg) (C) (F) (%) (C) (F)
00:05 1015 29.97 844 24.92 13.4 56.1 68 7.8 46
00:10 1015 29.97 844 24.92 13.2 55.7 68 7.5 45.4
00:15 1015 29.97 844 24.92 13.4 56 68 7.7 45.8
00:20 1015 29.97 844 24.92 13.2 55.7 69 7.7 45.9
00:25 1015 29.97 844 24.92 13.2 55.7 70 7.8 46.1
00:30 1015 29.97 844 24.92 13.3 55.9 69 7.8 46
00:35 1015 29.97 844 24.92 13.2 55.8 70 7.9 46.2
00:40 1015 29.97 844 24.92 13.2 55.7 70 7.8 46.1
00:45 1015 29.97 844 24.92 13.2 55.7 71 8 46.4
00:50 1015 29.97 844 24.92 13.2 55.7 70 7.8 46
00:55 1015 29.97 844 24.92 13.4 56.2 70 8.1 46.6
01:00 1015 29.97 844 24.92 13.6 56.4 67 7.7 45.9
01:05 1015 29.97 844 24.92 13.3 56 69 7.7 45.9
01:10 1015 29.97 844 24.92 13.1 55.7 69 7.5 45.6
01:15 1015 29.97 844 24.92 13.1 55.7 68 7.4 45.3
01:20 1015 29.97 844 24.92 13.2 55.7 70 7.8 46
01:25 1015 29.97 844 24.92 13.1 55.7 67 7.2 45
01:30 1015 29.97 844 24.92 13.2 55.7 69 7.7 45.9
01:35 1015 29.97 844 24.92 12.9 55.3 71 7.9 46.3
01:40 1015 29.97 844 24.92 12.6 54.8 76 8.5 47.3
01:45 1015 29.97 844 24.92 12.4 54.3 74 7.9 46.3
01:50 1015 29.97 844 24.92 12.5 54.5 74 8.1 46.6
01:55 1015 29.97 844 24.92 12.5 54.4 73 7.9 46.1
02:00 1015 29.97 844 24.92 12.4 54.4 75 8.1 46.6
02:05 1015 29.97 844 24.92 12.4 54.2 75 8 46.4
02:10 1015 29.97 844 24.92 12.3 54.1 77 8.3 46.9
02:15 1015 29.97 844 24.92 12.1 53.8 76 8.1 46.6
02:20 1014 29.94 844 24.92 12.2 53.9 74 7.7 45.8
02:25 1014 29.94 843 24.89 12.5 54.5 71 7.5 45.5
02:30 1014 29.94 843 24.89 12.7 54.9 70 7.5 45.4
02:35 1014 29.94 844 24.92 12.9 55.2 72 8 46.3
02:40 1014 29.94 843 24.89 12.8 55 73 8 46.4
02:45 1014 29.94 843 24.89 12.7 54.8 71 7.7 45.8
02:50 1014 29.94 843 24.89 12.5 54.5 72 7.7 45.9
02:55 1014 29.94 843 24.89 12.4 54.3 75 8 46.5
03:00 1014 29.94 843 24.89 12.1 53.9 76 8 46.5
03:05 1014 29.94 843 24.89 12.1 53.8 75 7.8 46.1
03:10 1014 29.94 843 24.89 12.2 54 72 7.4 45.4
03:15 1014 29.94 843 24.89 12.3 54.1 73 7.7 45.8
03:20 1014 29.94 843 24.89 12.3 54.1 72 7.4 45.3
03:25 1014 29.94 843 24.89 12.4 54.3 73 7.6 45.7
03:30 1014 29.94 843 24.89 12.3 54.1 73 7.5 45.6
03:35 1014 29.94 843 24.89 12.2 54 72 7.3 45.2
03:40 1014 29.94 843 24.89 12.3 54.1 73 7.5 45.6
03:45 1014 29.94 843 24.89 12.3 54.1 73 7.6 45.7
03:50 1014 29.94 843 24.89 12 53.6 73 7.4 45.3
03:55 1014 29.94 844 24.92 12 53.6 73 7.4 45.3
04:00 1014 29.94 844 24.92 11.9 53.5 74 7.4 45.3
04:05 1014 29.94 843 24.89 11.9 53.4 72 7.1 44.8
04:10 1014 29.94 843 24.89 12.1 53.7 74 7.5 45.5
04:15 1014 29.94 843 24.89 12 53.7 72 7.2 45
04:20 1014 29.94 843 24.89 12 53.6 74 7.6 45.6
04:25 1014 29.94 843 24.89 11.5 52.6 77 7.6 45.6
04:30 1014 29.94 843 24.89 11 51.8 79 7.6 45.6
04:35 1014 29.94 843 24.89 10.6 51.1 80 7.3 45.2
04:40 1014 29.94 843 24.89 10.5 51 79 7 44.6
04:45 1014 29.94 843 24.89 10.5 50.9 80 7.2 44.9
04:50 1014 29.94 844 24.92 10.4 50.7 80 7.2 45
04:55 1014 29.94 844 24.92 10.5 50.8 79 7.1 44.8
05:00 1014 29.94 844 24.92 10.4 50.7 80 7.1 44.8
05:05 1014 29.94 843 24.89 10.2 50.4 79 6.7 44.1
05:10 1014 29.94 843 24.89 10.4 50.7 76 6.3 43.4
05:15 1014 29.94 843 24.89 10.5 51 78 6.9 44.5
05:20 1014 29.94 843 24.89 10.3 50.5 79 6.8 44.2
05:25 1014 29.94 843 24.89 10.1 50.2 79 6.7 44
05:30 1014 29.94 844 24.92 10.3 50.5 77 6.4 43.6
05:35 1014 29.94 843 24.89 10.4 50.7 77 6.6 43.9
05:40 1014 29.94 844 24.92 10.4 50.6 77 6.6 43.8
05:45 1014 29.94 844 24.92 10.3 50.5 77 6.4 43.5
05:50 1014 29.94 844 24.92 10.2 50.3 79 6.7 44
05:55 1014 29.94 844 24.92 9.9 49.8 79 6.5 43.7
06:00 1014 29.94 844 24.92 9.9 49.9 79 6.4 43.5
06:05 1014 29.94 844 24.92 10.1 50.2 79 6.6 43.8
06:10 1014 29.94 844 24.92 10.1 50.2 79 6.7 44.1
06:15 1015 29.97 844 24.92 10 50 80 6.6 44
06:20 1015 29.97 844 24.92 9.9 49.8 79 6.4 43.5
06:25 1015 29.97 844 24.92 10.2 50.3 78 6.6 43.8
06:30 1015 29.97 844 24.92 10.2 50.3 79 6.8 44.2
06:35 1014 29.94 844 24.92 9.8 49.6 84 7.1 44.9
06:40 1015 29.97 844 24.92 9.5 49.1 84 6.8 44.3
06:45 1014 29.94 844 24.92 9.2 48.6 84 6.6 43.9
06:50 1014 29.94 844 24.92 9.3 48.8 84 6.7 44
06:55 1014 29.94 843 24.89 9.4 49 82 6.5 43.7
07:00 1014 29.94 843 24.89 9.9 49.9 76 6 42.8
07:05 1014 29.94 843 24.89 10.6 51.1 76 6.7 44
07:10 1014 29.94 844 24.92 10.7 51.2 75 6.4 43.6
07:15 1014 29.94 844 24.92 10.9 51.6 76 6.9 44.4
07:20 1014 29.94 844 24.92 10.9 51.7 78 7.2 45
07:25 1015 29.97 844 24.92 10.9 51.7 76 6.9 44.5
07:30 1015 29.97 844 24.92 11.1 52 76 7.1 44.9
07:35 1014 29.94 844 24.92 11.1 52 78 7.4 45.3
07:40 1014 29.94 844 24.92 11.1 52 77 7.3 45.2
07:45 1014 29.94 844 24.92 11.3 52.3 76 7.2 45
07:50 1014 29.94 844 24.92 11.5 52.8 77 7.7 45.8
07:55 1014 29.94 844 24.92 11.6 52.8 78 7.9 46.2
08:00 1015 29.97 844 24.92 11.7 53.1 78 8 46.5
08:05 1015 29.97 844 24.92 12 53.5 77 8 46.5
08:10 1015 29.97 844 24.92 12 53.7 76 8 46.4
08:15 1015 29.97 844 24.92 12.2 53.9 75 7.9 46.2
08:20 1015 29.97 844 24.92 12.4 54.4 72 7.6 45.7
08:25 1015 29.97 844 24.92 12.6 54.7 72 7.6 45.7
08:30 1015 29.97 844 24.92 12.8 55 72 8 46.3
08:35 1015 29.97 844 24.92 12.7 54.8 76 8.5 47.4
08:40 1015 29.97 845 24.95 12.4 54.3 78 8.7 47.7
08:45 1016 30 845 24.95 12.1 53.7 81 9 48.2
08:50 1016 30 845 24.95 11.9 53.4 81 8.7 47.7
08:55 1016 30 845 24.95 12 53.6 82 9.1 48.3
09:00 1016 30 845 24.95 12.1 53.8 83 9.4 48.8
09:05 1016 30 845 24.95 12.1 53.8 84 9.5 49
09:10 1016 30 846 24.98 11.6 52.9 87 9.5 49.1
09:15 1017 30.03 846 24.98 11.4 52.5 87 9.4 48.9
09:20 1016 30 846 24.98 11.2 52.1 90 9.6 49.3
09:25 1016 30 845 24.95 10.7 51.3 91 9.4 48.9
09:30 1015 29.97 845 24.95 10.7 51.2 92 9.4 49
09:35 1015 29.97 845 24.95 10.8 51.5 91 9.4 48.9
09:40 1015 29.97 844 24.92 11 51.9 89 9.3 48.8
09:45 1015 29.97 844 24.92 11.3 52.3 87 9.3 48.7
09:50 1015 29.97 844 24.92 11.6 52.9 84 8.9 48
09:55 1015 29.97 844 24.92 11.9 53.4 84 9.3 48.7
10:00 1015 29.97 844 24.92 12.6 54.6 81 9.4 48.9
10:05 1015 29.97 844 24.92 13 55.4 78 9.3 48.8
10:10 1015 29.97 844 24.92 13.2 55.7 78 9.4 48.9
10:15 1015 29.97 844 24.92 13.7 56.6 76 9.6 49.2
10:20 1015 29.97 844 24.92 14 57.1 76 9.9 49.8
10:25 1015 29.97 844 24.92 14.3 57.7 72 9.4 48.9
10:30 1015 29.97 844 24.92 14.4 57.9 72 9.5 49.1
10:35 1015 29.97 844 24.92 14.5 58.1 74 10 49.9
10:40 1015 29.97 844 24.92 14.7 58.4 73 10 50
10:45 1015 29.97 844 24.92 14.7 58.5 75 10.4 50.6
10:50 1015 29.97 844 24.92 14.7 58.5 73 10.1 50.2
10:55 1015 29.97 844 24.92 14.9 58.9 71 9.9 49.7
11:00 1015 29.97 844 24.92 14.9 58.8 70 9.4 49
11:05 1015 29.97 844 24.92 15.3 59.6 68 9.4 49
11:10 1015 29.97 844 24.92 15.2 59.4 68 9.4 48.9
11:15 1015 29.97 844 24.92 15.2 59.4 69 9.6 49.2
11:20 1015 29.97 844 24.92 15.6 60 69 9.9 49.9
11:25 1015 29.97 844 24.92 16 60.8 67 9.9 49.9
11:30 1015 29.97 844 24.92 16.8 62.2 63 9.9 49.8
11:35 1015 29.97 844 24.92 16.9 62.5 64 10.1 50.1
11:40 1015 29.97 844 24.92 17.1 62.7 62 9.8 49.6
11:45 1015 29.97 844 24.92 16.6 61.9 63 9.6 49.3
11:50 1015 29.97 844 24.92 16.4 61.6 63 9.4 48.9
11:55 1015 29.97 844 24.92 16.3 61.4 66 10 49.9
12:00 1015 29.97 844 24.92 15.9 60.6 67 9.8 49.7
12:05 1015 29.97 844 24.92 15.5 59.9 66 9.3 48.7
12:10 1015 29.97 844 24.92 16.3 61.3 64 9.6 49.3
12:15 1015 29.97 844 24.92 16.5 61.6 66 10.1 50.2
12:20 1014 29.94 844 24.92 16.1 60.9 64 9.3 48.8
12:25 1015 29.97 844 24.92 16.3 61.3 64 9.5 49.1
12:30 1015 29.97 844 24.92 16.7 62.1 63 9.7 49.4
12:35 1015 29.97 844 24.92 16.7 62 65 10.2 50.3
12:40 1015 29.97 844 24.92 16.4 61.5 65 9.9 49.8
12:45 1015 29.97 844 24.92 16.6 61.9 63 9.5 49.2
12:50 1014 29.94 844 24.92 17.1 62.8 62 9.8 49.6
12:55 1014 29.94 844 24.92 17.2 62.9 62 10 50
13:00 1015 29.97 844 24.92 16.8 62.3 65 10.2 50.4
13:05 1014 29.94 844 24.92 16.5 61.7 65 10 50
13:10 1014 29.94 844 24.92 16.6 61.8 63 9.5 49.1
13:15 1014 29.94 844 24.92 16.7 62.1 63 9.8 49.6
13:20 1014 29.94 844 24.92 17.1 62.7 62 9.8 49.6
13:25 1014 29.94 844 24.92 17.6 63.7 60 9.8 49.6
13:30 1014 29.94 844 24.92 17.3 63.1 61 9.8 49.6
13:35 1014 29.94 843 24.89 17.4 63.3 58 9.2 48.6
13:40 1014 29.94 843 24.89 16.8 62.2 62 9.6 49.3
13:45 1014 29.94 843 24.89 17.3 63.1 59 9.2 48.6
13:50 1014 29.94 843 24.89 17.8 64 58 9.4 48.9
13:55 1014 29.94 843 24.89 18 64.3 58 9.6 49.2
14:00 1014 29.94 843 24.89 17.6 63.6 60 9.8 49.7
14:05 1014 29.94 843 24.89 17.6 63.6 59 9.5 49.1
14:10 1014 29.94 843 24.89 17.2 62.9 61 9.6 49.2
14:15 1014 29.94 843 24.89 17 62.6 63 10 49.9
14:20 1014 29.94 843 24.89 16.9 62.5 62 9.7 49.5
14:25 1014 29.94 843 24.89 17.5 63.5 60 9.9 49.7
14:30 1014 29.94 843 24.89 17.8 64 59 9.7 49.5
14:35 1014 29.94 843 24.89 17.6 63.7 60 9.9 49.7
14:40 1014 29.94 843 24.89 17 62.7 63 10 50.1
14:45 1014 29.94 843 24.89 16.8 62.2 63 9.8 49.7
14:50 1014 29.94 843 24.89 17.3 63.1 61 9.9 49.8
14:55 1014 29.94 843 24.89 17.6 63.6 62 10.2 50.4
15:00 1013 29.91 843 24.89 17.7 63.9 60 9.9 49.9
15:05 1013 29.91 843 24.89 18.2 64.8 58 10 50
15:10 1013 29.91 843 24.89 18.6 65.5 58 10.4 50.7
15:15 1013 29.91 842 24.86 18.5 65.3 60 10.8 51.4
15:20 1013 29.91 842 24.86 18.1 64.6 61 10.6 51.1
15:25 1013 29.91 842 24.86 18 64.5 63 10.9 51.6
15:30 1013 29.91 842 24.86 17.7 63.8 65 11.2 52.1
15:35 1013 29.91 842 24.86 17.7 63.8 63 10.8 51.4
15:40 1013 29.91 842 24.86 17.5 63.5 65 10.9 51.6
15:45 1013 29.91 842 24.86 17.4 63.4 64 10.6 51
15:50 1013 29.91 842 24.86 17.2 62.9 62 9.9 49.8
15:55 1013 29.91 842 24.86 16.9 62.4 63 9.9 49.7
16:00 1013 29.91 842 24.86 16.8 62.3 65 10.2 50.4
16:05 1013 29.91 842 24.86 16.8 62.3 65 10.3 50.5
16:10 1013 29.91 842 24.86 16.7 62.1 66 10.3 50.6
16:15 1013 29.91 842 24.86 16.7 62 67 10.5 50.9
16:20 1013 29.91 842 24.86 16.7 62.1 68 10.8 51.4
16:25 1013 29.91 842 24.86 16.8 62.2 68 10.8 51.4
16:30 1013 29.91 843 24.89 16.8 62.2 67 10.8 51.4
16:35 1014 29.94 843 24.89 16.7 62 68 10.8 51.4
16:40 1014 29.94 843 24.89 16.5 61.6 67 10.5 50.8
16:45 1014 29.94 843 24.89 16.6 62 68 10.9 51.6
16:50 1014 29.94 843 24.89 16.5 61.7 70 11.1 52
16:55 1014 29.94 843 24.89 16.5 61.7 69 10.9 51.6
17:00 1015 29.97 844 24.92 16 60.8 64 9.2 48.6
17:05 1015 29.97 844 24.92 13.2 55.8 80 9.9 49.8
17:10 1015 29.97 844 24.92 11.7 53.1 88 9.8 49.7
17:15 1015 29.97 844 24.92 11.3 52.4 89 9.5 49.2
17:20 1015 29.97 844 24.92 11.2 52.1 90 9.7 49.4
17:25 1015 29.97 845 24.95 10.8 51.5 91 9.4 49
17:30 1015 29.97 845 24.95 10.7 51.3 91 9.2 48.6
17:35 1015 29.97 845 24.95 10.7 51.2 88 8.8 47.9
17:40 1015 29.97 845 24.95 10.5 50.8 91 9 48.3
17:45 1015 29.97 844 24.92 10.2 50.4 90 8.7 47.7
17:50 1015 29.97 844 24.92 9.7 49.5 86 7.5 45.5
17:55 1015 29.97 844 24.92 9.2 48.5 88 7.3 45.1
18:00 1015 29.97 844 24.92 8.9 48 89 7.2 44.9
18:05 1014 29.94 844 24.92 8.6 47.6 91 7.3 45.1
18:10 1014 29.94 844 24.92 8.7 47.6 91 7.3 45.1
18:15 1015 29.97 844 24.92 9.2 48.5 89 7.4 45.4
18:20 1015 29.97 844 24.92 9.2 48.5 90 7.7 45.8
18:25 1015 29.97 844 24.92 9.2 48.6 91 7.8 46
18:30 1015 29.97 844 24.92 9.5 49 89 7.7 45.9
18:35 1015 29.97 844 24.92 9.9 49.9 86 7.8 46
18:40 1015 29.97 844 24.92 10.1 50.1 87 8.1 46.6
18:45 1015 29.97 844 24.92 10.1 50.1 87 8 46.4
18:50 1015 29.97 844 24.92 10.2 50.3 86 8 46.4
18:55 1015 29.97 844 24.92 10.3 50.5 86 8.1 46.6
19:00 1015 29.97 844 24.92 10.4 50.7 87 8.3 46.9
19:05 1015 29.97 844 24.92 10.3 50.5 87 8.2 46.8
19:10 1015 29.97 844 24.92 10 49.9 88 8 46.5
19:15 1015 29.97 844 24.92 9.9 49.9 87 7.9 46.3
19:20 1015 29.97 844 24.92 10.3 50.5 87 8.2 46.7
19:25 1015 29.97 844 24.92 10.5 50.9 85 8.1 46.6
19:30 1015 29.97 844 24.92 10.6 51.1 85 8.1 46.7
19:35 1015 29.97 844 24.92 10.6 51.1 86 8.4 47.1
19:40 1015 29.97 844 24.92 10.6 51.1 86 8.3 47
19:45 1015 29.97 844 24.92 10.7 51.3 85 8.4 47.1
19:50 1015 29.97 844 24.92 10.7 51.2 87 8.7 47.6
19:55 1015 29.97 844 24.92 10.8 51.4 86 8.6 47.5
20:00 1015 29.97 844 24.92 10.8 51.4 86 8.6 47.5
20:05 1015 29.97 844 24.92 10.9 51.6 86 8.6 47.4
20:10 1015 29.97 844 24.92 10.9 51.7 85 8.5 47.3
20:15 1015 29.97 844 24.92 11.1 51.9 84 8.5 47.4
20:20 1015 29.97 844 24.92 11.2 52.1 82 8.3 47
20:25 1015 29.97 844 24.92 11.3 52.4 83 8.5 47.3
20:30 1015 29.97 844 24.92 11.4 52.5 82 8.5 47.2
20:35 1015 29.97 844 24.92 11.4 52.5 82 8.5 47.3
20:40 1015 29.97 844 24.92 11.4 52.4 83 8.6 47.5
20:45 1015 29.97 844 24.92 11.2 52.2 83 8.5 47.3
20:50 1015 29.97 845 24.95 11.2 52.1 85 8.7 47.7
20:55 1015 29.97 844 24.92 11.2 52.1 84 8.6 47.4
21:00 1015 29.97 844 24.92 11.1 52.1 84 8.5 47.3
21:05 1015 29.97 845 24.95 11 51.9 85 8.6 47.5
21:10 1015 29.97 845 24.95 11 51.7 84 8.4 47.2
21:15 1015 29.97 845 24.95 10.9 51.7 85 8.6 47.4
21:20 1016 30 845 24.95 10.8 51.5 86 8.6 47.5
21:25 1016 30 845 24.95 10.7 51.3 85 8.4 47.1
21:30 1016 30 845 24.95 10.6 51 87 8.5 47.3
21:35 1016 30 845 24.95 10.5 50.9 86 8.2 46.8
21:40 1016 30 845 24.95 10.4 50.8 88 8.5 47.3
21:45 1016 30 845 24.95 10.3 50.6 88 8.5 47.3
21:50 1016 30 845 24.95 10.3 50.5 88 8.3 47
21:55 1016 30 845 24.95 10.3 50.5 86 8.1 46.6
22:00 1016 30 845 24.95 10.3 50.6 86 8.2 46.7
22:05 1016 30 845 24.95 10.3 50.5 86 8 46.4
22:10 1016 30 845 24.95 10.3 50.6 85 7.9 46.2
22:15 1016 30 845 24.95 10.6 51 84 8 46.3
22:20 1016 30 845 24.95 10.6 51 85 8.2 46.8
22:25 1016 30 845 24.95 10.5 50.9 86 8.3 47
22:30 1016 30 845 24.95 10.5 50.8 86 8.3 46.9
22:35 1016 30 845 24.95 10.4 50.8 85 8.1 46.6
22:40 1016 30 845 24.95 10.4 50.7 88 8.5 47.3
22:45 1016 30 845 24.95 10.3 50.5 87 8.2 46.8
22:50 1016 30 845 24.95 10.1 50.3 87 8.2 46.7
22:55 1016 30 845 24.95 10.1 50.2 87 8.1 46.6
23:00 1016 30 845 24.95 10.2 50.4 88 8.3 46.9
23:05 1016 30 845 24.95 10.1 50.2 92 8.9 48.1
23:10 1016 30 845 24.95 10.1 50.2 90 8.5 47.2
23:15 1016 30 845 24.95 10 50 89 8.2 46.8
23:20 1016 30 845 24.95 10 50.1 87 8 46.5
23:25 1016 30 845 24.95 9.9 49.8 88 8.1 46.5
23:30 1016 30 845 24.95 9.9 49.7 88 8 46.4
23:35 1016 30 845 24.95 10 49.9 87 7.9 46.3
23:40 1016 30 845 24.95 9.9 49.8 88 7.9 46.3
23:45 1016 30 845 24.95 9.8 49.6 88 7.9 46.2
23:50 1015 29.97 845 24.95 9.7 49.4 88 7.8 46
23:55 1016 30 845 24.95 9.6 49.2 89 7.8 46
24:00 1016 30 845 24.95 9.5 49.1 88 7.6 45.7